This is the latest recevied weather packets stored in our database for station/object SV6DBG-10. If no packets are shown the sender has not sent any weather packets the latest 10 day(s).
| Time | Temp. | Humidity | Pressure | Rain* | Wind** | Luminosity | Snow |
|---|---|---|---|---|---|---|---|
| 1777354570 | 20° C | 43% | 1021.1 hPa | - | - | - | - |
| 1777353670 | 18.89° C | 47% | 1021 hPa | - | - | - | - |
| 1777352770 | 20° C | 43% | 1020.9 hPa | - | - | - | - |
| 1777351870 | 18.33° C | 48% | 1020.8 hPa | - | - | - | - |
| 1777350969 | 15.56° C | 57% | 1020.6 hPa | - | - | - | - |
| 1777350069 | 11.11° C | 80% | 1020.7 hPa | - | - | - | - |
| 1777349169 | 9.44° C | 81% | 1020.7 hPa | - | - | - | - |
| 1777348269 | 9.44° C | 81% | 1020.5 hPa | - | - | - | - |
| 1777347368 | 9.44° C | 81% | 1020.4 hPa | - | - | - | - |
| 1777346468 | 9.44° C | 80% | 1020.4 hPa | - | - | - | - |
| 1777345568 | 9.44° C | 79% | 1020.5 hPa | - | - | - | - |
| 1777344668 | 10° C | 80% | 1020.5 hPa | - | - | - | - |
| 1777343767 | 10° C | 79% | 1020.5 hPa | - | - | - | - |
| 1777342867 | 10° C | 79% | 1020.4 hPa | - | - | - | - |
| 1777341967 | 10° C | 78% | 1020.6 hPa | - | - | - | - |
| 1777341067 | 10° C | 78% | 1020.6 hPa | - | - | - | - |
| 1777340166 | 10° C | 77% | 1020.7 hPa | - | - | - | - |
| 1777339266 | 10.56° C | 76% | 1020.7 hPa | - | - | - | - |
| 1777338366 | 11.11° C | 76% | 1020.8 hPa | - | - | - | - |
| 1777337466 | 11.67° C | 72% | 1020.7 hPa | - | - | - | - |
| 1777336566 | 11.67° C | 73% | 1020.6 hPa | - | - | - | - |
| 1777335665 | 11.67° C | 71% | 1020.7 hPa | - | - | - | - |
| 1777334765 | 12.22° C | 72% | 1020.7 hPa | - | - | - | - |
| 1777333865 | 12.22° C | 69% | 1020.7 hPa | - | - | - | - |
| 1777332965 | 12.78° C | 69% | 1020.7 hPa | - | - | - | - |
* Rain since midnight (hover to see other rain measurements)
** Current wind speed in m/s (hover to see current wind gust speed)